Time;durP1;ratioP1;P1;durP2;ratioP2;P2;SDS_P1;SDS_P2;PMS_P1;PMS_P2;Temp;Humidity;BMP_temperature;BMP_pressure;BME280_temperature;BME280_humidity;BME280_pressure;Samples;Min_cycle;Max_cycle;Signal;HPM_P1;HPM_P2
2021/10/21 00:01:12;;;;;;;5.42;4.87;;;;;;;14.83;51.96;95654.84;1714209;81;21403;-84
2021/10/21 00:03:38;;;;;;;5.80;5.20;;;;;;;14.84;51.77;95647.28;1698052;81;21105;-84
2021/10/21 00:06:04;;;;;;;7.20;6.17;;;;;;;14.85;51.87;95650.69;1697071;82;21161;-84
2021/10/21 00:08:30;;;;;;;5.92;5.20;;;;;;;14.83;51.89;95640.46;1726121;80;21196;-84
2021/10/21 00:10:56;;;;;;;6.45;5.55;;;;;;;14.80;51.76;95650.04;1734187;80;21196;-84
2021/10/21 00:13:23;;;;;;;6.62;5.70;;;;;;;14.78;51.91;95649.47;1731686;80;21072;-85
2021/10/21 00:18:15;;;;;;;6.87;5.50;;;;;;;14.73;52.01;95657.20;1709284;81;21653;-84
2021/10/21 00:20:41;;;;;;;5.87;5.28;;;;;;;14.72;52.13;95651.69;1717043;82;21162;-84
2021/10/21 00:23:07;;;;;;;6.90;6.12;;;;;;;14.68;52.25;95655.78;1735003;80;21438;-84
2021/10/21 00:25:33;;;;;;;6.30;5.70;;;;;;;14.64;52.32;95651.52;1729762;81;21187;-84
2021/10/21 00:27:59;;;;;;;7.42;5.97;;;;;;;14.63;52.30;95653.82;1690651;82;21102;-84
2021/10/21 00:30:25;;;;;;;5.62;5.03;;;;;;;14.61;52.44;95651.95;1749571;81;21074;-84
2021/10/21 00:32:52;;;;;;;6.47;5.83;;;;;;;14.59;52.73;95649.27;1693096;81;21115;-84
2021/10/21 00:35:18;;;;;;;5.90;5.35;;;;;;;14.58;52.47;95646.38;1681007;82;21163;-84
2021/10/21 00:37:44;;;;;;;6.22;5.50;;;;;;;14.57;52.83;95644.27;1706376;82;21092;-84
2021/10/21 00:40:11;;;;;;;7.28;6.05;;;;;;;14.56;52.61;95644.50;1703511;80;21026;-84
2021/10/21 00:42:37;;;;;;;7.03;6.00;;;;;;;14.58;52.72;95645.07;1693683;82;21077;-84
2021/10/21 00:45:04;;;;;;;5.70;5.10;;;;;;;14.62;52.55;95646.20;1704418;79;21167;-84
2021/10/21 00:47:30;;;;;;;5.72;5.17;;;;;;;14.62;52.57;95640.47;1737384;79;21470;-84
2021/10/21 00:49:56;;;;;;;9.10;5.70;;;;;;;14.61;52.65;95643.31;1691278;81;21209;-84
2021/10/21 00:52:23;;;;;;;6.45;5.78;;;;;;;14.60;52.91;95632.05;1740903;80;21829;-84
2021/10/21 00:54:49;;;;;;;7.00;5.60;;;;;;;14.60;52.81;95628.64;1742112;80;21141;-85
2021/10/21 00:57:15;;;;;;;5.78;4.92;;;;;;;14.62;52.79;95635.23;1760385;79;21149;-84
2021/10/21 00:59:42;;;;;;;6.78;5.47;;;;;;;14.69;52.90;95632.03;1731849;80;21075;-85
2021/10/21 01:02:08;;;;;;;6.75;5.05;;;;;;;14.72;53.21;95637.31;1655063;83;21228;-84
2021/10/21 01:04:34;;;;;;;6.22;5.03;;;;;;;14.70;52.93;95635.44;1751916;80;21152;-84
2021/10/21 01:07:01;;;;;;;5.47;4.35;;;;;;;14.71;52.91;95638.33;1731971;80;21805;-84
2021/10/21 01:09:27;;;;;;;6.33;5.40;;;;;;;14.76;53.03;95637.65;1720520;81;21590;-84
2021/10/21 01:11:52;;;;;;;5.90;5.22;;;;;;;14.79;53.01;95634.58;1740679;81;21105;-84
2021/10/21 01:14:19;;;;;;;6.40;5.17;;;;;;;14.76;53.34;95620.66;1738293;81;21069;-84
2021/10/21 01:16:45;;;;;;;6.22;5.25;;;;;;;14.73;53.26;95632.88;1735675;80;21168;-85
2021/10/21 01:19:21;;;;;;;5.58;4.62;;;;;;;14.69;54.17;95629.92;1728997;81;21146;-84
2021/10/21 01:21:49;;;;;;;5.95;5.35;;;;;;;14.63;54.20;95628.19;1705080;82;21571;-84
2021/10/21 01:24:15;;;;;;;5.95;5.25;;;;;;;14.55;53.59;95622.79;1735416;81;21119;-84
2021/10/21 01:26:46;;;;;;;6.22;5.45;;;;;;;14.57;54.66;95617.34;1729660;81;21458;-84
2021/10/21 01:29:14;;;;;;;5.67;5.00;;;;;;;14.50;54.17;95610.12;1698095;83;21122;-84
2021/10/21 01:31:40;;;;;;;6.75;5.42;;;;;;;14.48;53.78;95605.59;1693354;82;21111;-84
2021/10/21 01:34:08;;;;;;;6.95;6.30;;;;;;;14.47;53.74;95596.95;1708191;82;21465;-84
2021/10/21 01:36:35;;;;;;;7.35;5.42;;;;;;;14.46;53.78;95607.12;1695235;82;21123;-84
2021/10/21 01:39:06;;;;;;;7.67;6.87;;;;;;;14.44;53.82;95600.03;1730614;81;21019;-84
2021/10/21 01:41:32;;;;;;;7.70;6.30;;;;;;;14.40;53.99;95590.51;1702350;83;21551;-84
2021/10/21 01:43:58;;;;;;;5.95;5.15;;;;;;;14.36;53.76;95584.14;1721366;81;21149;-84
2021/10/21 01:46:24;;;;;;;8.38;6.72;;;;;;;14.32;53.93;95588.23;1760130;79;21093;-84
2021/10/21 01:48:51;;;;;;;6.53;5.62;;;;;;;14.29;53.89;95574.80;1719063;81;21077;-84
2021/10/21 01:51:17;;;;;;;7.65;6.87;;;;;;;14.25;54.06;95577.58;1696992;82;21503;-84
2021/10/21 01:53:43;;;;;;;6.42;5.83;;;;;;;14.22;54.10;95568.89;1711412;82;21100;-84
2021/10/21 01:56:08;;;;;;;7.05;5.85;;;;;;;14.20;54.12;95567.80;1710270;83;21058;-84
2021/10/21 01:58:34;;;;;;;7.62;5.95;;;;;;;14.17;54.33;95576.09;1707502;82;21062;-84
2021/10/21 02:01:02;;;;;;;7.10;6.28;;;;;;;14.13;54.26;95572.31;1677062;83;21070;-84
2021/10/21 02:03:27;;;;;;;7.50;5.92;;;;;;;14.11;54.38;95569.93;1716986;81;21537;-84
2021/10/21 02:05:53;;;;;;;7.15;5.95;;;;;;;14.07;54.60;95561.47;1686575;82;21101;-84
2021/10/21 02:10:45;;;;;;;9.43;6.58;;;;;;;14.02;54.88;95560.04;1769277;79;21126;-84
2021/10/21 02:13:12;;;;;;;6.83;5.83;;;;;;;14.01;54.87;95552.72;1749195;78;21492;-84
2021/10/21 02:15:37;;;;;;;6.08;5.47;;;;;;;14.03;54.89;95552.48;1738292;81;21061;-84
2021/10/21 02:18:03;;;;;;;6.08;5.47;;;;;;;14.02;55.03;95541.25;1739573;81;21237;-84
2021/10/21 02:20:29;;;;;;;7.78;6.22;;;;;;;14.02;55.14;95539.14;1754296;80;21109;-84
2021/10/21 02:22:55;;;;;;;8.63;5.97;;;;;;;14.02;55.08;95540.45;1704850;82;21073;-84
2021/10/21 02:25:20;;;;;;;6.42;5.70;;;;;;;14.06;55.23;95534.55;1722291;81;21552;-84
2021/10/21 02:27:46;;;;;;;7.65;6.95;;;;;;;14.07;55.25;95528.81;1738723;80;21077;-84
2021/10/21 02:30:13;;;;;;;6.85;6.15;;;;;;;14.08;55.22;95535.12;1668355;84;21101;-84
2021/10/21 02:32:39;;;;;;;8.00;7.15;;;;;;;14.09;55.34;95524.16;1704214;82;21121;-84
2021/10/21 02:35:07;;;;;;;7.42;6.40;;;;;;;14.07;55.23;95507.91;1752246;80;21093;-84
2021/10/21 02:37:34;;;;;;;8.18;6.92;;;;;;;14.08;55.21;95505.08;1688948;82;21051;-84
2021/10/21 02:40:01;;;;;;;8.18;7.35;;;;;;;14.09;55.32;95496.73;1688042;81;21473;-84
2021/10/21 02:42:26;;;;;;;7.08;6.37;;;;;;;14.09;55.37;95501.44;1736546;80;21132;-83
2021/10/21 02:44:52;;;;;;;8.15;6.45;;;;;;;14.09;55.32;95479.23;1746292;79;21253;-83
2021/10/21 02:47:18;;;;;;;7.10;6.40;;;;;;;14.08;55.30;95475.03;1730546;80;21063;-84
2021/10/21 02:49:44;;;;;;;9.95;7.33;;;;;;;14.10;55.33;95476.11;1738075;80;21418;-84
2021/10/21 02:52:10;;;;;;;9.63;6.03;;;;;;;14.09;55.60;95466.69;1696278;82;21051;-84
2021/10/21 02:54:36;;;;;;;8.18;6.10;;;;;;;14.08;55.56;95478.95;1745041;79;21101;-84
2021/10/21 02:57:03;;;;;;;9.53;7.80;;;;;;;14.06;55.42;95468.45;1728921;80;21149;-84
2021/10/21 02:59:29;;;;;;;8.63;7.35;;;;;;;14.03;55.54;95455.84;1695439;81;21116;-84
2021/10/21 03:01:55;;;;;;;7.53;6.05;;;;;;;14.01;55.63;95465.22;1742309;80;21312;-84
2021/10/21 03:04:21;;;;;;;9.03;7.92;;;;;;;14.01;55.64;95460.50;1709794;81;21174;-84
2021/10/21 03:06:46;;;;;;;8.63;6.87;;;;;;;14.01;55.63;95473.05;1724411;81;21499;-84
2021/10/21 03:09:12;;;;;;;9.55;7.58;;;;;;;14.02;55.60;95464.70;1705184;82;21050;-84
2021/10/21 03:11:38;;;;;;;9.50;7.67;;;;;;;13.99;55.61;95466.44;1692653;82;21138;-84
2021/10/21 03:14:05;;;;;;;8.80;7.90;;;;;;;13.95;55.83;95460.08;1684372;82;21039;-84
2021/10/21 03:16:34;;;;;;;11.28;10.08;;;;;;;13.93;55.99;95455.08;1700899;82;21154;-84
2021/10/21 03:18:58;;;;;;;10.38;8.40;;;;;;;13.91;55.96;95450.59;1729782;79;21077;-84
2021/10/21 03:21:25;;;;;;;8.30;7.33;;;;;;;13.90;56.16;95445.60;1702346;82;21559;-84
2021/10/21 03:23:51;;;;;;;10.30;8.23;;;;;;;13.87;56.38;95444.75;1689650;82;21176;-84
2021/10/21 03:26:17;;;;;;;9.38;8.43;;;;;;;13.81;56.42;95443.81;1738452;81;21062;-84
2021/10/21 03:28:43;;;;;;;10.58;8.88;;;;;;;13.78;56.58;95440.35;1711157;82;21453;-84
2021/10/21 03:31:08;;;;;;;10.43;9.28;;;;;;;13.75;56.71;95452.05;1701619;81;21240;-84
2021/10/21 03:33:34;;;;;;;10.10;8.63;;;;;;;13.75;56.70;95442.91;1724749;81;21560;-84
2021/10/21 03:36:00;;;;;;;9.28;7.80;;;;;;;13.73;56.84;95429.80;1705654;79;21189;-84
2021/10/21 03:38:25;;;;;;;11.15;9.15;;;;;;;13.71;56.92;95437.85;1718357;82;21140;-84
2021/10/21 03:40:51;;;;;;;10.25;8.25;;;;;;;13.68;57.05;95429.17;1724056;81;21065;-84
2021/10/21 03:43:18;;;;;;;8.83;7.92;;;;;;;13.66;56.89;95425.95;1704028;81;21058;-84
2021/10/21 03:45:44;;;;;;;9.08;7.53;;;;;;;13.64;57.03;95453.31;1718427;83;21099;-84
2021/10/21 03:48:10;;;;;;;10.20;8.98;;;;;;;13.61;57.12;95438.89;1699156;82;22459;-84
2021/10/21 03:50:36;;;;;;;10.60;8.05;;;;;;;13.59;57.24;95440.94;1680302;84;21142;-84
2021/10/21 03:53:06;;;;;;;9.03;7.80;;;;;;;13.55;57.33;95429.36;1701686;83;21568;-84
2021/10/21 03:55:31;;;;;;;10.13;9.13;;;;;;;13.52;57.55;95445.47;1720468;81;21143;-84
2021/10/21 03:57:56;;;;;;;9.93;8.58;;;;;;;13.46;57.55;95417.63;1719248;82;21105;-84
2021/10/21 04:00:23;;;;;;;10.18;9.03;;;;;;;13.40;57.80;95421.94;1723330;82;21098;-84
2021/10/21 04:02:49;;;;;;;11.45;9.73;;;;;;;13.36;57.77;95423.91;1724357;82;21087;-84
2021/10/21 04:05:14;;;;;;;10.32;9.23;;;;;;;13.30;57.96;95419.05;1724261;81;21083;-84
2021/10/21 04:07:40;;;;;;;9.78;8.55;;;;;;;13.26;58.20;95391.03;1685902;81;21205;-84
2021/10/21 04:10:06;;;;;;;10.98;9.78;;;;;;;13.20;58.38;95391.42;1722699;80;21497;-84
2021/10/21 04:12:32;;;;;;;11.78;10.40;;;;;;;13.15;58.63;95388.13;1739917;80;21166;-83
2021/10/21 04:14:58;;;;;;;10.88;9.10;;;;;;;13.10;58.70;95382.78;1676222;84;21188;-84
2021/10/21 04:17:24;;;;;;;11.65;10.45;;;;;;;13.07;59.05;95374.10;1736053;81;21133;-84
2021/10/21 04:19:49;;;;;;;10.75;9.63;;;;;;;13.03;59.10;95363.83;1722199;81;21108;-84
2021/10/21 04:22:15;;;;;;;11.55;10.40;;;;;;;13.02;59.38;95349.20;1683718;83;21408;-83
2021/10/21 04:24:42;;;;;;;11.60;10.13;;;;;;;13.01;59.43;95346.80;1668094;84;21085;-84
2021/10/21 04:27:08;;;;;;;11.70;10.20;;;;;;;13.01;59.59;95350.20;1671514;83;21469;-83
2021/10/21 04:29:33;;;;;;;12.88;10.32;;;;;;;13.02;59.83;95335.38;1687980;80;21085;-84
2021/10/21 04:34:24;;;;;;;11.57;10.32;;;;;;;13.02;59.82;95327.55;1727357;80;21188;-84
2021/10/21 04:36:50;;;;;;;12.63;10.35;;;;;;;13.03;59.76;95320.02;1671794;83;21110;-84
2021/10/21 04:39:16;;;;;;;13.93;9.88;;;;;;;13.03;59.78;95318.20;1678078;83;21085;-84
2021/10/21 04:41:42;;;;;;;10.88;9.65;;;;;;;13.03;59.70;95320.02;1668488;84;21115;-84
2021/10/21 04:44:08;;;;;;;13.28;10.32;;;;;;;13.01;59.76;95310.29;1705061;81;21113;-83
2021/10/21 04:46:33;;;;;;;11.40;10.10;;;;;;;12.97;59.77;95295.60;1712518;81;21093;-84
2021/10/21 04:48:59;;;;;;;12.28;10.63;;;;;;;12.95;59.97;95302.06;1692021;82;21483;-84
2021/10/21 04:51:26;;;;;;;12.75;11.30;;;;;;;12.93;59.86;95303.08;1699409;82;21183;-84
2021/10/21 04:53:51;;;;;;;11.50;10.28;;;;;;;12.93;59.96;95300.47;1728405;81;21467;-84
2021/10/21 04:56:17;;;;;;;13.55;10.72;;;;;;;12.92;59.85;95300.70;1677354;82;21041;-84
2021/10/21 04:58:43;;;;;;;11.25;9.95;;;;;;;12.90;59.93;95287.89;1683286;81;21355;-84
2021/10/21 05:01:09;;;;;;;10.85;9.65;;;;;;;12.91;60.17;95287.38;1712982;81;21430;-84
2021/10/21 05:03:36;;;;;;;11.55;8.33;;;;;;;12.92;60.03;95285.05;1700108;81;21484;-84
2021/10/21 05:06:02;;;;;;;10.88;8.78;;;;;;;12.90;60.22;95272.25;1691040;80;21117;-83
2021/10/21 05:08:28;;;;;;;13.00;11.10;;;;;;;12.90;60.12;95274.06;1720780;82;21070;-84
2021/10/21 05:10:54;;;;;;;13.25;11.65;;;;;;;12.87;60.05;95264.08;1695303;82;21162;-84
2021/10/21 05:13:19;;;;;;;12.75;10.28;;;;;;;12.86;60.10;95254.16;1696622;83;21558;-83
2021/10/21 05:15:45;;;;;;;14.78;10.82;;;;;;;12.86;60.21;95241.64;1684739;83;21482;-84
2021/10/21 05:18:11;;;;;;;11.63;10.43;;;;;;;12.86;60.26;95236.42;1694556;83;21105;-84
2021/10/21 05:20:38;;;;;;;12.88;11.53;;;;;;;12.85;60.27;95236.11;1718831;81;21221;-84
2021/10/21 05:23:05;;;;;;;12.03;10.68;;;;;;;12.78;60.28;95227.09;1702264;82;21481;-83
2021/10/21 05:25:30;;;;;;;12.03;9.33;;;;;;;12.84;60.39;95224.09;1703976;81;21071;-84
2021/10/21 05:27:56;;;;;;;11.55;10.15;;;;;;;12.82;60.34;95217.02;1706019;82;21103;-84
2021/10/21 05:30:23;;;;;;;10.90;9.10;;;;;;;12.83;60.23;95213.38;1664144;83;21543;-83
2021/10/21 05:32:48;;;;;;;10.18;9.08;;;;;;;12.85;60.38;95212.65;1702505;81;21129;-83
2021/10/21 05:35:14;;;;;;;11.78;10.58;;;;;;;12.86;60.30;95206.45;1712432;81;21152;-83
2021/10/21 05:37:40;;;;;;;11.83;10.45;;;;;;;12.91;60.34;95193.52;1713494;82;21558;-83
2021/10/21 05:40:06;;;;;;;10.55;9.13;;;;;;;12.94;60.37;95189.16;1695293;81;21163;-83
2021/10/21 05:42:32;;;;;;;13.80;10.10;;;;;;;12.97;60.16;95170.45;1711257;81;21078;-84
2021/10/21 05:44:58;;;;;;;13.90;10.82;;;;;;;13.06;60.25;95189.97;1709512;81;21041;-84
2021/10/21 05:47:24;;;;;;;12.50;9.63;;;;;;;13.19;60.50;95160.30;1723333;81;21084;-84
2021/10/21 05:49:50;;;;;;;10.78;9.00;;;;;;;13.30;60.08;95180.35;1718265;82;21103;-84
2021/10/21 05:52:20;;;;;;;12.30;9.10;;;;;;;13.39;59.83;95145.59;1687322;83;21132;-84
2021/10/21 05:54:45;;;;;;;11.53;9.70;;;;;;;13.46;60.09;95148.34;1701887;83;21447;-84
2021/10/21 05:57:11;;;;;;;9.28;7.60;;;;;;;13.54;59.64;95134.17;1735392;81;21156;-84
2021/10/21 05:59:37;;;;;;;11.55;10.08;;;;;;;13.54;59.64;95148.52;1714594;80;21053;-84
2021/10/21 06:02:03;;;;;;;10.60;9.50;;;;;;;13.50;59.24;95133.84;1675913;84;21143;-83
2021/10/21 06:04:30;;;;;;;10.90;9.25;;;;;;;13.47;59.38;95147.84;1717699;82;21067;-83
2021/10/21 06:06:56;;;;;;;11.48;10.28;;;;;;;13.44;59.47;95152.22;1703279;81;21051;-85
2021/10/21 06:09:22;;;;;;;11.63;9.38;;;;;;;13.44;59.61;95145.69;1720637;82;21354;-84
2021/10/21 06:11:50;;;;;;;10.65;9.00;;;;;;;13.44;59.84;95123.00;1696130;82;21158;-84
2021/10/21 06:14:17;;;;;;;10.08;8.78;;;;;;;13.49;59.97;95140.05;1718045;81;21131;-84
2021/10/21 06:16:44;;;;;;;11.50;9.68;;;;;;;13.61;60.00;95119.16;1679303;84;21089;-85
2021/10/21 06:19:10;;;;;;;10.00;7.58;;;;;;;13.73;59.98;95143.94;1674375;84;21234;-84
2021/10/21 06:21:36;;;;;;;10.50;8.15;;;;;;;13.85;59.94;95117.81;1724815;80;21135;-84
2021/10/21 06:24:02;;;;;;;16.65;11.15;;;;;;;14.01;59.85;95111.84;1733719;80;21216;-84
2021/10/21 06:26:28;;;;;;;10.10;9.00;;;;;;;14.07;59.04;95108.28;1689863;81;21050;-85
2021/10/21 06:28:57;;;;;;;10.15;8.85;;;;;;;14.12;59.05;95109.67;1712057;82;21179;-84
2021/10/21 06:31:22;;;;;;;11.08;8.78;;;;;;;14.12;58.92;95118.81;1694825;82;21077;-85
2021/10/21 06:33:48;;;;;;;12.03;9.73;;;;;;;14.16;58.94;95104.28;1718202;81;21062;-84
2021/10/21 06:36:14;;;;;;;9.98;8.98;;;;;;;14.22;58.84;95107.77;1728813;81;21528;-85
2021/10/21 06:38:40;;;;;;;10.65;9.25;;;;;;;14.26;58.67;95111.48;1718058;81;21127;-84
2021/10/21 06:41:05;;;;;;;11.78;8.93;;;;;;;14.27;58.71;95109.15;1682172;82;21175;-84
2021/10/21 06:43:32;;;;;;;9.50;8.00;;;;;;;14.30;58.82;95123.04;1702854;82;21152;-84
2021/10/21 06:46:00;;;;;;;10.08;8.63;;;;;;;14.33;58.77;95115.55;1722013;81;21519;-85
2021/10/21 06:48:29;;;;;;;9.95;8.28;;;;;;;14.34;58.77;95114.52;1731470;80;21076;-85
2021/10/21 06:50:54;;;;;;;10.80;9.70;;;;;;;14.39;58.63;95119.83;1725474;82;21063;-84
2021/10/21 06:53:20;;;;;;;10.32;8.73;;;;;;;14.42;58.49;95097.13;1747097;80;21047;-84
2021/10/21 06:55:46;;;;;;;9.33;7.78;;;;;;;14.43;58.62;95069.17;1739735;79;21105;-85
2021/10/21 06:58:12;;;;;;;11.45;8.85;;;;;;;14.47;58.44;95073.44;1760482;79;21496;-85
2021/10/21 07:00:40;;;;;;;10.48;7.53;;;;;;;14.56;58.73;95068.90;1742997;80;21498;-85
2021/10/21 07:03:06;;;;;;;12.10;8.15;;;;;;;14.60;58.71;95070.52;1739333;81;21377;-84
2021/10/21 07:05:38;;;;;;;13.15;9.98;;;;;;;14.67;58.69;95058.88;1708075;79;21542;-85
2021/10/21 07:08:00;;;;;;;11.48;8.98;;;;;;;14.75;58.47;95057.67;1704587;82;21075;-84
2021/10/21 07:10:25;;;;;;;10.88;8.40;;;;;;;14.80;58.68;95051.20;1733053;80;21147;-84
2021/10/21 07:12:51;;;;;;;11.10;9.93;;;;;;;14.83;58.53;95056.48;1691241;82;21140;-85
2021/10/21 07:15:17;;;;;;;11.00;9.55;;;;;;;14.85;58.55;95054.42;1726091;79;21048;-84
2021/10/21 07:17:43;;;;;;;12.65;9.63;;;;;;;14.85;58.43;95063.05;1711467;80;21113;-85
2021/10/21 07:20:09;;;;;;;10.45;9.35;;;;;;;14.85;58.52;95090.52;1729183;81;21697;-84
2021/10/21 07:22:35;;;;;;;11.93;9.15;;;;;;;14.83;58.35;95110.89;1744416;80;22103;-85
2021/10/21 07:25:01;;;;;;;11.88;9.80;;;;;;;14.83;58.60;95114.81;1734930;80;21115;-84
2021/10/21 07:27:27;;;;;;;11.00;9.78;;;;;;;14.83;58.57;95130.50;1741540;79;21152;-84
2021/10/21 07:29:53;;;;;;;11.43;9.45;;;;;;;14.84;58.75;95133.39;1726106;82;21047;-85
2021/10/21 07:32:19;;;;;;;9.78;8.83;;;;;;;14.85;58.76;95113.26;1702860;80;21408;-85
2021/10/21 07:34:45;;;;;;;12.88;10.03;;;;;;;14.88;58.68;95118.80;1705429;82;21082;-84
2021/10/21 07:37:11;;;;;;;10.20;8.60;;;;;;;14.89;58.79;95113.84;1728788;80;21129;-84
2021/10/21 07:39:38;;;;;;;9.90;8.88;;;;;;;14.89;58.70;95099.45;1732446;80;21085;-85
2021/10/21 07:42:05;;;;;;;11.12;8.23;;;;;;;14.88;58.79;95091.34;1753228;79;21158;-84
2021/10/21 07:44:33;;;;;;;12.18;9.98;;;;;;;14.89;58.83;95091.61;1779325;79;21079;-84
2021/10/21 07:47:00;;;;;;;10.93;9.23;;;;;;;14.89;59.01;95081.67;1741575;80;21066;-84
2021/10/21 07:49:27;;;;;;;10.45;9.35;;;;;;;14.93;58.89;95071.00;1750004;79;21074;-84
2021/10/21 07:51:53;;;;;;;10.93;9.33;;;;;;;14.96;58.93;95075.22;1768992;78;21096;-85
2021/10/21 07:54:18;;;;;;;12.70;9.83;;;;;;;14.98;58.87;95087.58;1723900;80;21084;-85
2021/10/21 07:56:44;;;;;;;12.65;9.90;;;;;;;15.00;58.80;95063.27;1718909;80;21505;-85
2021/10/21 07:59:10;;;;;;;12.85;9.75;;;;;;;15.04;58.96;95060.17;1748324;78;21115;-85
2021/10/21 08:01:39;;;;;;;11.33;9.38;;;;;;;15.09;58.96;95054.48;1736713;80;21075;-85
2021/10/21 08:04:07;;;;;;;11.97;9.55;;;;;;;15.12;58.96;95055.81;1704822;82;21236;-84
2021/10/21 08:06:33;;;;;;;11.68;9.33;;;;;;;15.17;58.75;95080.75;1690523;83;21228;-85
2021/10/21 08:08:59;;;;;;;10.93;9.08;;;;;;;15.23;58.84;95083.70;1687447;81;21051;-84
2021/10/21 08:11:25;;;;;;;8.50;7.60;;;;;;;15.29;58.73;95084.03;1698285;83;21196;-84
2021/10/21 08:13:52;;;;;;;10.30;8.85;;;;;;;15.36;58.55;95081.25;1727032;81;21065;-85
2021/10/21 08:16:18;;;;;;;8.70;7.80;;;;;;;15.40;58.64;95098.05;1691288;82;21547;-84
2021/10/21 08:18:44;;;;;;;10.55;9.35;;;;;;;15.39;58.48;95089.41;1718066;81;21078;-84
2021/10/21 08:21:10;;;;;;;9.15;6.87;;;;;;;15.52;58.47;95094.29;1700107;81;21040;-84
2021/10/21 08:23:36;;;;;;;8.75;7.85;;;;;;;15.60;58.41;95094.39;1707453;82;21110;-84
2021/10/21 08:26:06;;;;;;;10.95;8.80;;;;;;;15.68;58.56;95095.29;1713757;82;21543;-84
2021/10/21 08:28:32;;;;;;;9.55;8.55;;;;;;;15.80;58.13;95088.62;1699076;82;21090;-84
2021/10/21 08:30:58;;;;;;;9.00;7.30;;;;;;;15.96;57.83;95098.75;1686938;81;21448;-85
2021/10/21 08:33:23;;;;;;;9.53;7.85;;;;;;;16.13;58.33;95102.06;1712907;80;21448;-85
2021/10/21 08:35:49;;;;;;;8.90;8.00;;;;;;;16.28;57.25;95103.53;1710493;80;21051;-85
2021/10/21 08:38:15;;;;;;;9.48;7.87;;;;;;;16.38;57.00;95114.09;1700071;80;21114;-85
2021/10/21 08:40:40;;;;;;;11.25;8.15;;;;;;;16.42;57.02;95145.83;1719255;80;21102;-85
2021/10/21 08:43:07;;;;;;;9.88;8.68;;;;;;;16.41;57.06;95166.53;1718281;82;21062;-85
2021/10/21 08:45:33;;;;;;;7.95;7.15;;;;;;;16.34;56.61;95193.48;1714009;81;21076;-84
2021/10/21 08:48:04;;;;;;;9.08;8.13;;;;;;;16.24;56.44;95215.11;1714347;81;21189;-85
2021/10/21 08:50:33;;;;;;;9.30;7.80;;;;;;;16.16;56.54;95233.91;1721279;81;21062;-85
2021/10/21 08:53:03;;;;;;;8.13;7.15;;;;;;;16.09;56.83;95252.41;1682410;82;21220;-85
2021/10/21 08:55:28;;;;;;;9.15;7.37;;;;;;;16.04;56.78;95279.87;1701735;81;21047;-85
2021/10/21 08:57:55;;;;;;;8.90;8.00;;;;;;;16.01;56.66;95296.08;1715564;81;21422;-85
2021/10/21 09:00:21;;;;;;;10.03;8.25;;;;;;;16.00;56.83;95296.33;1699234;82;21146;-85
2021/10/21 09:02:59;;;;;;;9.05;7.53;;;;;;;15.98;56.80;95299.19;1724204;81;21149;-85
2021/10/21 09:08:15;;;;;;;9.38;7.58;;;;;;;15.96;56.62;95289.98;1691254;82;21173;-85
2021/10/21 09:10:49;;;;;;;8.05;6.92;;;;;;;15.97;56.57;95285.02;1675165;82;21028;-85
2021/10/21 09:15:54;;;;;;;6.67;5.90;;;;;;;15.97;56.55;95274.55;1719911;81;21191;-85
2021/10/21 09:18:19;;;;;;;8.43;6.90;;;;;;;15.99;56.47;95272.47;1695290;80;21073;-85
2021/10/21 09:20:47;;;;;;;8.93;7.92;;;;;;;16.00;56.16;95271.43;1712466;81;21161;-85
2021/10/21 09:23:16;;;;;;;9.63;8.03;;;;;;;15.97;55.56;95267.99;1702860;81;21149;-85
2021/10/21 09:25:44;;;;;;;11.43;7.42;;;;;;;15.90;56.25;95253.73;1689336;82;21109;-85
2021/10/21 09:28:24;;;;;;;9.10;8.10;;;;;;;15.88;56.52;95263.67;1654480;84;21188;-85
2021/10/21 09:30:57;;;;;;;10.45;8.98;;;;;;;15.84;56.25;95282.22;1734138;80;21122;-85
2021/10/21 09:33:25;;;;;;;9.03;8.13;;;;;;;15.76;56.55;95272.14;1691323;82;21561;-85
2021/10/21 09:35:58;;;;;;;10.30;8.65;;;;;;;15.71;57.12;95285.96;1711888;81;21198;-85
2021/10/21 09:41:05;;;;;;;8.68;7.70;;;;;;;15.66;57.10;95307.37;1701233;81;21123;-85
2021/10/21 09:43:32;;;;;;;7.50;6.70;;;;;;;15.63;57.18;95309.16;1709418;80;21022;-85
2021/10/21 09:45:58;;;;;;;10.63;7.55;;;;;;;15.57;57.21;95305.10;1739990;80;21547;-85
2021/10/21 09:48:24;;;;;;;9.50;7.50;;;;;;;15.54;57.58;95302.97;1749915;80;21438;-85
2021/10/21 09:50:49;;;;;;;10.65;8.35;;;;;;;15.52;57.72;95316.02;1702913;82;21107;-85
2021/10/21 09:53:28;;;;;;;10.48;8.65;;;;;;;15.45;57.61;95307.00;1700245;81;21108;-85
2021/10/21 09:56:02;;;;;;;8.38;7.42;;;;;;;15.37;57.60;95333.58;1742953;81;21058;-85
2021/10/21 09:58:33;;;;;;;9.15;8.25;;;;;;;15.27;57.85;95342.05;1734578;80;21157;-85
2021/10/21 10:01:15;;;;;;;7.30;6.47;;;;;;;15.15;58.03;95356.23;1741367;80;21098;-84
2021/10/21 10:03:43;;;;;;;9.28;7.47;;;;;;;14.99;58.37;95351.25;1703516;82;21057;-84
2021/10/21 10:06:14;;;;;;;8.63;7.60;;;;;;;14.98;58.66;95383.66;1656844;84;21117;-84
2021/10/21 10:08:41;;;;;;;9.95;8.25;;;;;;;14.92;59.00;95373.59;1687665;82;21039;-84
2021/10/21 10:11:19;;;;;;;8.80;7.90;;;;;;;14.85;59.27;95378.19;1726556;80;21193;-85
2021/10/21 10:13:41;;;;;;;9.75;8.73;;;;;;;14.80;59.44;95381.20;1710289;81;21465;-85
2021/10/21 10:16:07;;;;;;;9.50;8.45;;;;;;;14.77;59.54;95393.43;1669178;83;21166;-85
2021/10/21 10:18:33;;;;;;;9.08;7.53;;;;;;;14.73;59.87;95386.57;1675420;84;21150;-84
2021/10/21 10:21:10;;;;;;;11.45;7.70;;;;;;;14.70;60.08;95381.30;1658827;82;21054;-85
2021/10/21 10:26:11;;;;;;;8.40;7.10;;;;;;;14.70;60.25;95421.82;1701589;82;21064;-85
2021/10/21 10:31:17;;;;;;;8.83;7.47;;;;;;;14.71;60.17;95396.47;1690031;83;21488;-84
2021/10/21 10:33:43;;;;;;;8.70;7.80;;;;;;;14.68;60.29;95401.66;1723200;80;21086;-84
2021/10/21 10:36:28;;;;;;;7.65;6.80;;;;;;;14.67;60.29;95434.56;1728075;80;21023;-83
2021/10/21 10:38:59;;;;;;;7.90;7.10;;;;;;;14.66;60.59;95429.05;1703594;82;21120;-84
2021/10/21 10:44:41;;;;;;;6.95;6.35;;;;;;;14.60;60.79;95446.95;1719898;81;21096;-86
2021/10/21 10:47:09;;;;;;;8.75;6.78;;;;;;;14.56;61.04;95440.59;1713740;82;21073;-85
2021/10/21 10:49:44;;;;;;;6.62;5.97;;;;;;;14.54;61.20;95439.52;1717548;82;22406;-85
2021/10/21 10:52:14;;;;;;;7.20;6.50;;;;;;;14.57;61.36;95448.72;1712070;81;21082;-84
2021/10/21 10:54:53;;;;;;;15.28;6.72;;;;;;;14.56;61.27;95449.23;1713083;81;21046;-85
2021/10/21 10:57:31;;;;;;;8.48;6.55;;;;;;;14.59;61.64;95439.62;1711529;82;21605;-84
2021/10/21 11:00:01;;;;;;;7.15;5.97;;;;;;;14.64;61.59;95448.07;1736979;80;21596;-85
2021/10/21 11:02:29;;;;;;;22.58;7.95;;;;;;;14.67;61.49;95422.80;1714525;81;21216;-85
2021/10/21 11:07:43;;;;;;;6.60;5.90;;;;;;;14.81;61.46;95384.91;1672639;83;21198;-84
2021/10/21 11:10:28;;;;;;;6.97;5.75;;;;;;;14.88;61.59;95382.16;1728353;81;21115;-85
2021/10/21 11:12:52;;;;;;;7.40;5.67;;;;;;;14.95;61.18;95363.97;1700452;81;21104;-84
2021/10/21 11:15:37;;;;;;;7.85;5.75;;;;;;;14.99;60.94;95348.11;1666982;82;21063;-85
2021/10/21 11:18:04;;;;;;;6.00;5.40;;;;;;;15.01;60.69;95325.64;1742891;81;21560;-85
2021/10/21 11:20:36;;;;;;;7.67;5.47;;;;;;;14.98;60.86;95312.52;1727936;81;21154;-85
2021/10/21 11:23:03;;;;;;;6.78;5.83;;;;;;;14.98;61.04;95304.67;1744615;80;21134;-84
2021/10/21 11:25:36;;;;;;;7.85;6.20;;;;;;;14.91;61.11;95287.53;1720583;81;21174;-84
2021/10/21 11:28:03;;;;;;;68.20;9.65;;;;;;;14.85;61.47;95287.96;1724640;80;21022;-85
2021/10/21 11:30:35;;;;;;;22.95;6.50;;;;;;;14.81;61.50;95269.06;1727622;80;21088;-89
2021/10/21 11:33:01;;;;;;;5.92;4.83;;;;;;;14.81;61.52;95276.39;1733668;81;21077;-89
2021/10/21 11:35:34;;;;;;;14.65;6.00;;;;;;;14.78;61.42;95255.91;1735739;80;21135;-87
2021/10/21 11:40:40;;;;;;;6.75;5.12;;;;;;;14.78;61.15;95256.43;1670463;82;21056;-89
2021/10/21 11:45:37;;;;;;;6.50;3.72;;;;;;;14.79;59.36;95262.73;1731514;81;21558;-88
2021/10/21 11:48:10;;;;;;;6.10;4.15;;;;;;;14.85;59.12;95248.73;1718203;81;21059;-88
2021/10/21 11:50:47;;;;;;;4.67;4.17;;;;;;;14.96;58.95;95258.83;1746939;80;21123;-89
2021/10/21 11:53:15;;;;;;;4.60;4.20;;;;;;;15.11;58.54;95247.83;1712829;81;21101;-89
2021/10/21 11:55:44;;;;;;;5.95;3.50;;;;;;;15.27;58.91;95261.44;1729974;81;22254;-88
2021/10/21 12:00:42;;;;;;;4.85;3.12;;;;;;;15.51;56.84;95266.00;1736612;80;21144;-88
2021/10/21 12:03:07;;;;;;;6.33;3.67;;;;;;;15.54;56.26;95260.28;1714755;81;21098;-88